sensor_id;sensor_type;location;lat;lon;timestamp;P1;durP1;ratioP1;P2;durP2;ratioP2
75358;SDS011;64046;51.978;5.934;2023-10-09T00:01:40;19.30;;;9.63;;
75358;SDS011;64046;51.978;5.934;2023-10-09T00:04:12;21.52;;;10.20;;
75358;SDS011;64046;51.978;5.934;2023-10-09T00:06:47;24.45;;;11.38;;
75358;SDS011;64046;51.978;5.934;2023-10-09T00:09:20;26.52;;;11.10;;
75358;SDS011;64046;51.978;5.934;2023-10-09T00:12:07;25.05;;;11.82;;
75358;SDS011;64046;51.978;5.934;2023-10-09T00:14:41;25.00;;;11.57;;
75358;SDS011;64046;51.978;5.934;2023-10-09T00:17:14;24.67;;;11.45;;
75358;SDS011;64046;51.978;5.934;2023-10-09T00:19:51;23.27;;;12.43;;
75358;SDS011;64046;51.978;5.934;2023-10-09T00:22:25;22.45;;;12.32;;
75358;SDS011;64046;51.978;5.934;2023-10-09T00:24:56;23.77;;;11.68;;
75358;SDS011;64046;51.978;5.934;2023-10-09T00:27:50;23.38;;;11.70;;
75358;SDS011;64046;51.978;5.934;2023-10-09T00:30:20;26.60;;;11.95;;
75358;SDS011;64046;51.978;5.934;2023-10-09T00:32:55;26.20;;;12.55;;
75358;SDS011;64046;51.978;5.934;2023-10-09T00:35:38;28.52;;;12.68;;
75358;SDS011;64046;51.978;5.934;2023-10-09T00:38:20;31.15;;;14.50;;
75358;SDS011;64046;51.978;5.934;2023-10-09T00:40:59;26.55;;;13.13;;
75358;SDS011;64046;51.978;5.934;2023-10-09T00:43:36;24.30;;;12.57;;
75358;SDS011;64046;51.978;5.934;2023-10-09T00:46:10;25.23;;;12.60;;
75358;SDS011;64046;51.978;5.934;2023-10-09T00:48:51;28.52;;;13.60;;
75358;SDS011;64046;51.978;5.934;2023-10-09T00:51:26;32.33;;;15.20;;
75358;SDS011;64046;51.978;5.934;2023-10-09T00:54:03;23.75;;;13.63;;
75358;SDS011;64046;51.978;5.934;2023-10-09T00:56:40;25.05;;;13.15;;
75358;SDS011;64046;51.978;5.934;2023-10-09T00:59:23;31.40;;;14.05;;
75358;SDS011;64046;51.978;5.934;2023-10-09T01:01:54;29.52;;;14.60;;
75358;SDS011;64046;51.978;5.934;2023-10-09T01:04:32;25.90;;;13.85;;
75358;SDS011;64046;51.978;5.934;2023-10-09T01:07:09;21.92;;;12.55;;
75358;SDS011;64046;51.978;5.934;2023-10-09T01:09:42;27.88;;;14.35;;
75358;SDS011;64046;51.978;5.934;2023-10-09T01:12:11;34.85;;;15.88;;
75358;SDS011;64046;51.978;5.934;2023-10-09T01:14:46;29.58;;;14.10;;
75358;SDS011;64046;51.978;5.934;2023-10-09T01:17:18;29.50;;;15.05;;
75358;SDS011;64046;51.978;5.934;2023-10-09T01:20:03;33.95;;;15.75;;
75358;SDS011;64046;51.978;5.934;2023-10-09T01:22:45;28.60;;;15.50;;
75358;SDS011;64046;51.978;5.934;2023-10-09T01:25:19;30.92;;;16.90;;
75358;SDS011;64046;51.978;5.934;2023-10-09T01:27:52;32.15;;;14.95;;
75358;SDS011;64046;51.978;5.934;2023-10-09T01:30:23;30.27;;;15.07;;
75358;SDS011;64046;51.978;5.934;2023-10-09T01:33:01;31.92;;;16.98;;
75358;SDS011;64046;51.978;5.934;2023-10-09T01:35:41;36.25;;;16.63;;
75358;SDS011;64046;51.978;5.934;2023-10-09T01:38:14;36.53;;;16.95;;
75358;SDS011;64046;51.978;5.934;2023-10-09T01:40:49;28.73;;;14.07;;
75358;SDS011;64046;51.978;5.934;2023-10-09T01:43:31;25.73;;;14.20;;
75358;SDS011;64046;51.978;5.934;2023-10-09T01:46:02;26.85;;;13.68;;
75358;SDS011;64046;51.978;5.934;2023-10-09T01:48:36;39.90;;;19.90;;
75358;SDS011;64046;51.978;5.934;2023-10-09T01:51:18;31.02;;;15.88;;
75358;SDS011;64046;51.978;5.934;2023-10-09T01:53:47;28.17;;;14.63;;
75358;SDS011;64046;51.978;5.934;2023-10-09T01:56:25;27.38;;;14.55;;
75358;SDS011;64046;51.978;5.934;2023-10-09T01:58:58;34.75;;;14.75;;
75358;SDS011;64046;51.978;5.934;2023-10-09T02:01:31;30.75;;;15.68;;
75358;SDS011;64046;51.978;5.934;2023-10-09T02:04:06;24.95;;;14.80;;
75358;SDS011;64046;51.978;5.934;2023-10-09T02:06:42;30.05;;;16.60;;
75358;SDS011;64046;51.978;5.934;2023-10-09T02:09:12;27.85;;;14.82;;
75358;SDS011;64046;51.978;5.934;2023-10-09T02:11:56;29.77;;;15.48;;
75358;SDS011;64046;51.978;5.934;2023-10-09T02:14:26;28.58;;;15.32;;
75358;SDS011;64046;51.978;5.934;2023-10-09T02:16:56;26.50;;;14.90;;
75358;SDS011;64046;51.978;5.934;2023-10-09T02:19:37;28.50;;;16.45;;
75358;SDS011;64046;51.978;5.934;2023-10-09T02:22:11;30.83;;;15.95;;
75358;SDS011;64046;51.978;5.934;2023-10-09T02:24:43;25.60;;;14.88;;
75358;SDS011;64046;51.978;5.934;2023-10-09T02:27:33;29.05;;;15.38;;
75358;SDS011;64046;51.978;5.934;2023-10-09T02:30:15;31.27;;;14.88;;
75358;SDS011;64046;51.978;5.934;2023-10-09T02:32:45;28.50;;;15.98;;
75358;SDS011;64046;51.978;5.934;2023-10-09T02:35:32;27.38;;;15.15;;
75358;SDS011;64046;51.978;5.934;2023-10-09T02:38:12;39.22;;;18.70;;
75358;SDS011;64046;51.978;5.934;2023-10-09T02:40:43;29.58;;;16.08;;
75358;SDS011;64046;51.978;5.934;2023-10-09T02:43:30;28.85;;;15.60;;
75358;SDS011;64046;51.978;5.934;2023-10-09T02:46:11;28.13;;;15.98;;
75358;SDS011;64046;51.978;5.934;2023-10-09T02:48:55;27.33;;;15.25;;
75358;SDS011;64046;51.978;5.934;2023-10-09T02:51:30;28.55;;;14.85;;
75358;SDS011;64046;51.978;5.934;2023-10-09T02:54:08;32.10;;;16.60;;
75358;SDS011;64046;51.978;5.934;2023-10-09T02:56:56;25.02;;;14.48;;
75358;SDS011;64046;51.978;5.934;2023-10-09T02:59:45;35.40;;;17.38;;
75358;SDS011;64046;51.978;5.934;2023-10-09T03:02:17;34.20;;;18.52;;
75358;SDS011;64046;51.978;5.934;2023-10-09T03:04:50;34.50;;;17.20;;
75358;SDS011;64046;51.978;5.934;2023-10-09T03:07:23;33.33;;;17.38;;
75358;SDS011;64046;51.978;5.934;2023-10-09T03:09:56;30.08;;;15.90;;
75358;SDS011;64046;51.978;5.934;2023-10-09T03:12:26;34.22;;;16.63;;
75358;SDS011;64046;51.978;5.934;2023-10-09T03:15:01;33.88;;;17.00;;
75358;SDS011;64046;51.978;5.934;2023-10-09T03:17:34;29.48;;;15.45;;
75358;SDS011;64046;51.978;5.934;2023-10-09T03:20:10;26.77;;;15.63;;
75358;SDS011;64046;51.978;5.934;2023-10-09T03:22:43;28.48;;;15.77;;
75358;SDS011;64046;51.978;5.934;2023-10-09T03:25:15;31.92;;;15.75;;
75358;SDS011;64046;51.978;5.934;2023-10-09T03:27:46;26.50;;;15.20;;
75358;SDS011;64046;51.978;5.934;2023-10-09T03:30:22;35.58;;;18.98;;
75358;SDS011;64046;51.978;5.934;2023-10-09T03:32:54;30.08;;;15.93;;
75358;SDS011;64046;51.978;5.934;2023-10-09T03:35:26;29.63;;;17.65;;
75358;SDS011;64046;51.978;5.934;2023-10-09T03:38:00;27.08;;;15.35;;
75358;SDS011;64046;51.978;5.934;2023-10-09T03:40:38;26.70;;;14.77;;
75358;SDS011;64046;51.978;5.934;2023-10-09T03:43:19;28.95;;;16.55;;
75358;SDS011;64046;51.978;5.934;2023-10-09T03:45:53;27.42;;;16.52;;
75358;SDS011;64046;51.978;5.934;2023-10-09T03:48:25;34.13;;;17.73;;
75358;SDS011;64046;51.978;5.934;2023-10-09T03:51:03;25.30;;;15.70;;
75358;SDS011;64046;51.978;5.934;2023-10-09T03:53:41;35.53;;;16.42;;
75358;SDS011;64046;51.978;5.934;2023-10-09T03:56:16;24.77;;;14.70;;
75358;SDS011;64046;51.978;5.934;2023-10-09T03:58:47;28.73;;;16.63;;
75358;SDS011;64046;51.978;5.934;2023-10-09T04:01:24;25.63;;;15.65;;
75358;SDS011;64046;51.978;5.934;2023-10-09T04:03:55;28.38;;;15.52;;
75358;SDS011;64046;51.978;5.934;2023-10-09T04:06:26;28.10;;;14.45;;
75358;SDS011;64046;51.978;5.934;2023-10-09T04:08:58;26.02;;;16.08;;
75358;SDS011;64046;51.978;5.934;2023-10-09T04:11:40;30.55;;;18.45;;
75358;SDS011;64046;51.978;5.934;2023-10-09T04:14:12;33.10;;;17.98;;
75358;SDS011;64046;51.978;5.934;2023-10-09T04:16:54;28.25;;;17.45;;
75358;SDS011;64046;51.978;5.934;2023-10-09T04:19:30;31.98;;;16.23;;
75358;SDS011;64046;51.978;5.934;2023-10-09T04:22:14;26.10;;;15.35;;
75358;SDS011;64046;51.978;5.934;2023-10-09T04:24:53;24.80;;;14.50;;
75358;SDS011;64046;51.978;5.934;2023-10-09T04:27:23;32.00;;;15.82;;
75358;SDS011;64046;51.978;5.934;2023-10-09T04:30:02;28.00;;;17.23;;
75358;SDS011;64046;51.978;5.934;2023-10-09T04:32:42;21.23;;;14.30;;
75358;SDS011;64046;51.978;5.934;2023-10-09T04:35:16;24.08;;;14.32;;
75358;SDS011;64046;51.978;5.934;2023-10-09T04:37:55;22.70;;;13.73;;
75358;SDS011;64046;51.978;5.934;2023-10-09T04:40:31;26.80;;;15.45;;
75358;SDS011;64046;51.978;5.934;2023-10-09T04:43:14;25.85;;;15.07;;
75358;SDS011;64046;51.978;5.934;2023-10-09T04:45:49;20.80;;;12.63;;
75358;SDS011;64046;51.978;5.934;2023-10-09T04:48:33;28.83;;;15.13;;
75358;SDS011;64046;51.978;5.934;2023-10-09T04:51:11;27.27;;;15.02;;
75358;SDS011;64046;51.978;5.934;2023-10-09T04:53:48;24.27;;;14.68;;
75358;SDS011;64046;51.978;5.934;2023-10-09T04:56:38;19.90;;;12.88;;
75358;SDS011;64046;51.978;5.934;2023-10-09T04:59:18;22.42;;;12.55;;
75358;SDS011;64046;51.978;5.934;2023-10-09T05:01:52;21.35;;;12.43;;
75358;SDS011;64046;51.978;5.934;2023-10-09T05:04:37;21.42;;;13.98;;
75358;SDS011;64046;51.978;5.934;2023-10-09T05:07:10;23.45;;;14.73;;
75358;SDS011;64046;51.978;5.934;2023-10-09T05:09:53;22.10;;;14.05;;
75358;SDS011;64046;51.978;5.934;2023-10-09T05:12:40;21.63;;;12.30;;
75358;SDS011;64046;51.978;5.934;2023-10-09T05:15:22;22.08;;;13.70;;
75358;SDS011;64046;51.978;5.934;2023-10-09T05:17:55;26.90;;;13.70;;
75358;SDS011;64046;51.978;5.934;2023-10-09T05:20:25;21.65;;;12.75;;
75358;SDS011;64046;51.978;5.934;2023-10-09T05:23:22;22.50;;;12.75;;
75358;SDS011;64046;51.978;5.934;2023-10-09T05:25:55;25.42;;;13.77;;
75358;SDS011;64046;51.978;5.934;2023-10-09T05:28:47;23.67;;;13.23;;
75358;SDS011;64046;51.978;5.934;2023-10-09T05:31:24;24.25;;;12.38;;
75358;SDS011;64046;51.978;5.934;2023-10-09T05:34:09;27.58;;;14.75;;
75358;SDS011;64046;51.978;5.934;2023-10-09T05:36:48;24.95;;;14.75;;
75358;SDS011;64046;51.978;5.934;2023-10-09T05:39:15;23.27;;;13.27;;
75358;SDS011;64046;51.978;5.934;2023-10-09T05:42:07;24.85;;;15.60;;
75358;SDS011;64046;51.978;5.934;2023-10-09T05:44:42;23.05;;;12.63;;
75358;SDS011;64046;51.978;5.934;2023-10-09T05:47:47;19.60;;;11.73;;
75358;SDS011;64046;51.978;5.934;2023-10-09T05:50:21;23.80;;;12.82;;
75358;SDS011;64046;51.978;5.934;2023-10-09T05:53:27;18.75;;;11.75;;
75358;SDS011;64046;51.978;5.934;2023-10-09T05:56:15;19.08;;;11.32;;
75358;SDS011;64046;51.978;5.934;2023-10-09T05:59:01;27.00;;;14.57;;
75358;SDS011;64046;51.978;5.934;2023-10-09T06:01:42;27.67;;;13.68;;
75358;SDS011;64046;51.978;5.934;2023-10-09T06:04:39;26.52;;;14.45;;
75358;SDS011;64046;51.978;5.934;2023-10-09T06:07:20;23.48;;;12.15;;
75358;SDS011;64046;51.978;5.934;2023-10-09T06:10:14;17.60;;;11.73;;
75358;SDS011;64046;51.978;5.934;2023-10-09T06:13:01;26.08;;;13.48;;
75358;SDS011;64046;51.978;5.934;2023-10-09T06:15:36;23.80;;;13.48;;
75358;SDS011;64046;51.978;5.934;2023-10-09T06:18:25;25.30;;;13.00;;
75358;SDS011;64046;51.978;5.934;2023-10-09T06:21:00;21.35;;;12.10;;
75358;SDS011;64046;51.978;5.934;2023-10-09T06:23:56;17.67;;;11.10;;
75358;SDS011;64046;51.978;5.934;2023-10-09T06:26:48;17.92;;;10.82;;
75358;SDS011;64046;51.978;5.934;2023-10-09T06:29:33;22.15;;;10.68;;
75358;SDS011;64046;51.978;5.934;2023-10-09T06:32:05;17.35;;;10.90;;
75358;SDS011;64046;51.978;5.934;2023-10-09T06:34:51;22.98;;;11.18;;
75358;SDS011;64046;51.978;5.934;2023-10-09T06:37:41;20.13;;;11.23;;
75358;SDS011;64046;51.978;5.934;2023-10-09T06:40:23;20.85;;;12.02;;
75358;SDS011;64046;51.978;5.934;2023-10-09T06:43:08;20.70;;;12.18;;
75358;SDS011;64046;51.978;5.934;2023-10-09T06:45:54;21.85;;;11.38;;
75358;SDS011;64046;51.978;5.934;2023-10-09T06:48:30;20.08;;;11.40;;
75358;SDS011;64046;51.978;5.934;2023-10-09T06:51:13;18.33;;;10.60;;
75358;SDS011;64046;51.978;5.934;2023-10-09T06:54:06;24.00;;;11.27;;
75358;SDS011;64046;51.978;5.934;2023-10-09T06:56:44;16.85;;;10.32;;
75358;SDS011;64046;51.978;5.934;2023-10-09T06:59:31;19.42;;;11.65;;
75358;SDS011;64046;51.978;5.934;2023-10-09T07:02:30;18.65;;;10.63;;
75358;SDS011;64046;51.978;5.934;2023-10-09T07:05:12;24.85;;;12.60;;
75358;SDS011;64046;51.978;5.934;2023-10-09T07:07:43;24.77;;;11.48;;
75358;SDS011;64046;51.978;5.934;2023-10-09T07:10:21;24.58;;;12.23;;
75358;SDS011;64046;51.978;5.934;2023-10-09T07:13:07;20.55;;;12.02;;
75358;SDS011;64046;51.978;5.934;2023-10-09T07:15:37;25.13;;;12.55;;
75358;SDS011;64046;51.978;5.934;2023-10-09T07:18:41;20.00;;;11.23;;
75358;SDS011;64046;51.978;5.934;2023-10-09T07:21:15;24.67;;;11.73;;
75358;SDS011;64046;51.978;5.934;2023-10-09T07:23:57;22.48;;;11.35;;
75358;SDS011;64046;51.978;5.934;2023-10-09T07:26:41;21.10;;;13.00;;
75358;SDS011;64046;51.978;5.934;2023-10-09T07:29:13;22.00;;;12.13;;
75358;SDS011;64046;51.978;5.934;2023-10-09T07:31:52;22.77;;;11.27;;
75358;SDS011;64046;51.978;5.934;2023-10-09T07:34:39;22.83;;;13.23;;
75358;SDS011;64046;51.978;5.934;2023-10-09T07:37:26;28.80;;;14.52;;
75358;SDS011;64046;51.978;5.934;2023-10-09T07:40:04;26.90;;;12.90;;
75358;SDS011;64046;51.978;5.934;2023-10-09T07:42:46;25.77;;;13.80;;
75358;SDS011;64046;51.978;5.934;2023-10-09T07:45:29;19.95;;;11.60;;
75358;SDS011;64046;51.978;5.934;2023-10-09T07:51:30;23.92;;;11.75;;
75358;SDS011;64046;51.978;5.934;2023-10-09T07:54:23;24.80;;;13.90;;
75358;SDS011;64046;51.978;5.934;2023-10-09T07:57:05;21.00;;;11.90;;
75358;SDS011;64046;51.978;5.934;2023-10-09T07:59:42;18.67;;;10.88;;
75358;SDS011;64046;51.978;5.934;2023-10-09T08:02:23;25.20;;;13.05;;
75358;SDS011;64046;51.978;5.934;2023-10-09T08:05:01;21.23;;;11.52;;
75358;SDS011;64046;51.978;5.934;2023-10-09T08:07:46;22.05;;;11.82;;
75358;SDS011;64046;51.978;5.934;2023-10-09T08:10:50;21.23;;;12.05;;
75358;SDS011;64046;51.978;5.934;2023-10-09T08:13:37;21.88;;;12.45;;
75358;SDS011;64046;51.978;5.934;2023-10-09T08:16:23;23.30;;;12.65;;
75358;SDS011;64046;51.978;5.934;2023-10-09T08:19:04;20.70;;;12.15;;
75358;SDS011;64046;51.978;5.934;2023-10-09T08:25:06;24.00;;;12.60;;
75358;SDS011;64046;51.978;5.934;2023-10-09T08:27:56;28.35;;;15.82;;
75358;SDS011;64046;51.978;5.934;2023-10-09T08:30:52;27.05;;;14.57;;
75358;SDS011;64046;51.978;5.934;2023-10-09T08:33:31;22.20;;;11.57;;
75358;SDS011;64046;51.978;5.934;2023-10-09T08:36:11;27.73;;;14.13;;
75358;SDS011;64046;51.978;5.934;2023-10-09T08:38:55;23.50;;;12.23;;
75358;SDS011;64046;51.978;5.934;2023-10-09T08:41:43;22.75;;;12.57;;
75358;SDS011;64046;51.978;5.934;2023-10-09T08:44:14;21.42;;;11.70;;
75358;SDS011;64046;51.978;5.934;2023-10-09T08:46:53;21.67;;;11.65;;
75358;SDS011;64046;51.978;5.934;2023-10-09T08:49:29;33.88;;;15.80;;
75358;SDS011;64046;51.978;5.934;2023-10-09T08:52:03;22.20;;;13.40;;
75358;SDS011;64046;51.978;5.934;2023-10-09T08:54:43;31.10;;;16.30;;
75358;SDS011;64046;51.978;5.934;2023-10-09T08:57:15;21.05;;;12.60;;
75358;SDS011;64046;51.978;5.934;2023-10-09T08:59:46;22.55;;;13.52;;
75358;SDS011;64046;51.978;5.934;2023-10-09T09:02:21;21.35;;;11.77;;
75358;SDS011;64046;51.978;5.934;2023-10-09T09:04:51;24.80;;;15.20;;
75358;SDS011;64046;51.978;5.934;2023-10-09T09:07:30;23.52;;;13.27;;
75358;SDS011;64046;51.978;5.934;2023-10-09T09:10:09;25.50;;;13.05;;
75358;SDS011;64046;51.978;5.934;2023-10-09T09:12:49;21.00;;;12.45;;
75358;SDS011;64046;51.978;5.934;2023-10-09T09:15:26;25.63;;;13.52;;
75358;SDS011;64046;51.978;5.934;2023-10-09T09:18:06;29.63;;;12.93;;
75358;SDS011;64046;51.978;5.934;2023-10-09T09:20:43;23.95;;;14.40;;
75358;SDS011;64046;51.978;5.934;2023-10-09T09:23:21;25.63;;;12.82;;
75358;SDS011;64046;51.978;5.934;2023-10-09T09:25:55;23.83;;;12.05;;
75358;SDS011;64046;51.978;5.934;2023-10-09T09:28:34;21.95;;;12.10;;
75358;SDS011;64046;51.978;5.934;2023-10-09T09:31:25;24.33;;;13.82;;
75358;SDS011;64046;51.978;5.934;2023-10-09T09:34:04;23.92;;;13.00;;
75358;SDS011;64046;51.978;5.934;2023-10-09T09:36:53;22.15;;;10.93;;
75358;SDS011;64046;51.978;5.934;2023-10-09T09:39:24;19.85;;;11.85;;
75358;SDS011;64046;51.978;5.934;2023-10-09T09:42:04;25.17;;;12.45;;
75358;SDS011;64046;51.978;5.934;2023-10-09T09:44:40;28.40;;;13.07;;
75358;SDS011;64046;51.978;5.934;2023-10-09T09:47:16;25.08;;;13.00;;
75358;SDS011;64046;51.978;5.934;2023-10-09T09:49:49;19.23;;;11.15;;
75358;SDS011;64046;51.978;5.934;2023-10-09T09:52:29;28.08;;;13.60;;
75358;SDS011;64046;51.978;5.934;2023-10-09T09:55:10;20.92;;;11.98;;
75358;SDS011;64046;51.978;5.934;2023-10-09T09:57:51;19.65;;;10.10;;
75358;SDS011;64046;51.978;5.934;2023-10-09T10:00:21;23.92;;;11.85;;
75358;SDS011;64046;51.978;5.934;2023-10-09T10:03:08;19.05;;;10.40;;
75358;SDS011;64046;51.978;5.934;2023-10-09T10:05:44;16.25;;;9.75;;
75358;SDS011;64046;51.978;5.934;2023-10-09T10:08:18;19.85;;;10.32;;
75358;SDS011;64046;51.978;5.934;2023-10-09T10:10:57;19.15;;;10.27;;
75358;SDS011;64046;51.978;5.934;2023-10-09T10:16:33;21.67;;;10.23;;
75358;SDS011;64046;51.978;5.934;2023-10-09T10:23:05;21.98;;;10.80;;
75358;SDS011;64046;51.978;5.934;2023-10-09T10:25:51;21.73;;;9.88;;
75358;SDS011;64046;51.978;5.934;2023-10-09T10:28:26;17.95;;;9.32;;
75358;SDS011;64046;51.978;5.934;2023-10-09T10:31:11;20.15;;;9.77;;
75358;SDS011;64046;51.978;5.934;2023-10-09T10:36:38;15.50;;;8.13;;
75358;SDS011;64046;51.978;5.934;2023-10-09T10:39:13;19.58;;;8.55;;
75358;SDS011;64046;51.978;5.934;2023-10-09T10:42:13;15.82;;;8.43;;
75358;SDS011;64046;51.978;5.934;2023-10-09T10:45:00;20.38;;;9.02;;
75358;SDS011;64046;51.978;5.934;2023-10-09T10:47:53;20.48;;;7.85;;
75358;SDS011;64046;51.978;5.934;2023-10-09T10:50:35;13.10;;;8.07;;
75358;SDS011;64046;51.978;5.934;2023-10-09T10:53:08;18.15;;;9.15;;
75358;SDS011;64046;51.978;5.934;2023-10-09T10:55:55;20.67;;;8.23;;
75358;SDS011;64046;51.978;5.934;2023-10-09T10:58:24;14.50;;;7.68;;
75358;SDS011;64046;51.978;5.934;2023-10-09T11:01:01;18.65;;;8.20;;
75358;SDS011;64046;51.978;5.934;2023-10-09T11:03:46;17.23;;;7.15;;
75358;SDS011;64046;51.978;5.934;2023-10-09T11:06:28;14.85;;;6.50;;
75358;SDS011;64046;51.978;5.934;2023-10-09T11:09:09;16.15;;;7.32;;
75358;SDS011;64046;51.978;5.934;2023-10-09T11:12:04;20.42;;;7.55;;
75358;SDS011;64046;51.978;5.934;2023-10-09T11:14:51;16.75;;;7.20;;
75358;SDS011;64046;51.978;5.934;2023-10-09T11:17:34;18.63;;;7.80;;
75358;SDS011;64046;51.978;5.934;2023-10-09T11:20:09;14.05;;;7.10;;
75358;SDS011;64046;51.978;5.934;2023-10-09T11:22:52;16.08;;;7.03;;
75358;SDS011;64046;51.978;5.934;2023-10-09T11:25:42;19.02;;;7.40;;
75358;SDS011;64046;51.978;5.934;2023-10-09T11:28:41;14.77;;;6.38;;
75358;SDS011;64046;51.978;5.934;2023-10-09T11:31:16;12.82;;;6.53;;
75358;SDS011;64046;51.978;5.934;2023-10-09T11:33:50;22.48;;;6.82;;
75358;SDS011;64046;51.978;5.934;2023-10-09T11:36:24;19.80;;;7.22;;
75358;SDS011;64046;51.978;5.934;2023-10-09T11:38:58;11.18;;;6.22;;
75358;SDS011;64046;51.978;5.934;2023-10-09T11:41:41;17.00;;;7.00;;
75358;SDS011;64046;51.978;5.934;2023-10-09T11:44:33;17.13;;;7.20;;
75358;SDS011;64046;51.978;5.934;2023-10-09T11:47:05;15.35;;;5.95;;
75358;SDS011;64046;51.978;5.934;2023-10-09T11:49:48;12.30;;;6.13;;
75358;SDS011;64046;51.978;5.934;2023-10-09T11:52:27;18.00;;;6.60;;
75358;SDS011;64046;51.978;5.934;2023-10-09T11:55:05;14.45;;;6.22;;
75358;SDS011;64046;51.978;5.934;2023-10-09T11:57:43;13.02;;;6.40;;
75358;SDS011;64046;51.978;5.934;2023-10-09T12:00:16;11.10;;;6.35;;
75358;SDS011;64046;51.978;5.934;2023-10-09T12:02:57;14.15;;;5.00;;
75358;SDS011;64046;51.978;5.934;2023-10-09T12:05:31;12.93;;;6.10;;
75358;SDS011;64046;51.978;5.934;2023-10-09T12:08:05;12.15;;;5.00;;
75358;SDS011;64046;51.978;5.934;2023-10-09T12:10:38;14.07;;;5.20;;
75358;SDS011;64046;51.978;5.934;2023-10-09T12:13:09;13.70;;;5.90;;
75358;SDS011;64046;51.978;5.934;2023-10-09T12:15:41;14.80;;;6.05;;
75358;SDS011;64046;51.978;5.934;2023-10-09T12:18:14;13.00;;;5.97;;
75358;SDS011;64046;51.978;5.934;2023-10-09T12:20:49;11.88;;;5.43;;
75358;SDS011;64046;51.978;5.934;2023-10-09T12:23:32;11.23;;;5.40;;
75358;SDS011;64046;51.978;5.934;2023-10-09T12:26:04;12.80;;;5.47;;
75358;SDS011;64046;51.978;5.934;2023-10-09T12:28:41;11.52;;;5.18;;
75358;SDS011;64046;51.978;5.934;2023-10-09T12:31:14;13.05;;;5.00;;
75358;SDS011;64046;51.978;5.934;2023-10-09T12:33:47;15.05;;;5.30;;
75358;SDS011;64046;51.978;5.934;2023-10-09T12:36:17;14.70;;;4.95;;
75358;SDS011;64046;51.978;5.934;2023-10-09T12:38:50;15.48;;;5.47;;
75358;SDS011;64046;51.978;5.934;2023-10-09T12:41:24;10.27;;;5.13;;
75358;SDS011;64046;51.978;5.934;2023-10-09T12:44:02;15.57;;;5.55;;
75358;SDS011;64046;51.978;5.934;2023-10-09T12:46:42;9.38;;;4.40;;
75358;SDS011;64046;51.978;5.934;2023-10-09T12:49:18;8.52;;;4.55;;
75358;SDS011;64046;51.978;5.934;2023-10-09T12:51:51;9.60;;;4.43;;
75358;SDS011;64046;51.978;5.934;2023-10-09T12:54:27;14.75;;;5.22;;
75358;SDS011;64046;51.978;5.934;2023-10-09T12:57:05;12.88;;;5.00;;
75358;SDS011;64046;51.978;5.934;2023-10-09T12:59:41;12.82;;;5.05;;
75358;SDS011;64046;51.978;5.934;2023-10-09T13:02:15;12.32;;;4.80;;
75358;SDS011;64046;51.978;5.934;2023-10-09T13:04:54;16.02;;;4.53;;
75358;SDS011;64046;51.978;5.934;2023-10-09T13:07:32;10.60;;;4.72;;
75358;SDS011;64046;51.978;5.934;2023-10-09T13:10:07;13.38;;;5.50;;
75358;SDS011;64046;51.978;5.934;2023-10-09T13:12:40;12.90;;;4.45;;
75358;SDS011;64046;51.978;5.934;2023-10-09T13:15:11;15.57;;;5.72;;
75358;SDS011;64046;51.978;5.934;2023-10-09T13:17:40;11.98;;;5.43;;
75358;SDS011;64046;51.978;5.934;2023-10-09T13:20:11;9.68;;;4.18;;
75358;SDS011;64046;51.978;5.934;2023-10-09T13:22:43;11.30;;;4.90;;
75358;SDS011;64046;51.978;5.934;2023-10-09T13:25:20;14.90;;;4.90;;
75358;SDS011;64046;51.978;5.934;2023-10-09T13:28:09;17.73;;;6.00;;
75358;SDS011;64046;51.978;5.934;2023-10-09T13:30:46;10.43;;;4.82;;
75358;SDS011;64046;51.978;5.934;2023-10-09T13:33:16;9.48;;;5.00;;
75358;SDS011;64046;51.978;5.934;2023-10-09T13:35:50;15.10;;;5.72;;
75358;SDS011;64046;51.978;5.934;2023-10-09T13:38:22;13.75;;;5.10;;
75358;SDS011;64046;51.978;5.934;2023-10-09T13:40:59;8.80;;;4.95;;
75358;SDS011;64046;51.978;5.934;2023-10-09T13:43:30;15.10;;;5.10;;
75358;SDS011;64046;51.978;5.934;2023-10-09T13:46:01;11.73;;;4.97;;
75358;SDS011;64046;51.978;5.934;2023-10-09T13:48:37;8.90;;;4.38;;
75358;SDS011;64046;51.978;5.934;2023-10-09T13:51:12;15.13;;;5.45;;
75358;SDS011;64046;51.978;5.934;2023-10-09T13:53:50;9.25;;;4.68;;
75358;SDS011;64046;51.978;5.934;2023-10-09T13:56:25;12.55;;;5.07;;
75358;SDS011;64046;51.978;5.934;2023-10-09T13:58:54;9.15;;;4.97;;
75358;SDS011;64046;51.978;5.934;2023-10-09T14:01:27;9.50;;;4.70;;
75358;SDS011;64046;51.978;5.934;2023-10-09T14:03:59;12.88;;;5.05;;
75358;SDS011;64046;51.978;5.934;2023-10-09T14:06:32;9.48;;;4.70;;
75358;SDS011;64046;51.978;5.934;2023-10-09T14:09:05;12.82;;;5.20;;
75358;SDS011;64046;51.978;5.934;2023-10-09T14:11:53;12.60;;;5.63;;
75358;SDS011;64046;51.978;5.934;2023-10-09T14:14:33;13.70;;;5.15;;
75358;SDS011;64046;51.978;5.934;2023-10-09T14:17:13;13.75;;;5.30;;
75358;SDS011;64046;51.978;5.934;2023-10-09T14:19:47;12.20;;;5.78;;
75358;SDS011;64046;51.978;5.934;2023-10-09T14:22:20;11.02;;;4.85;;
75358;SDS011;64046;51.978;5.934;2023-10-09T14:24:54;10.65;;;4.95;;
75358;SDS011;64046;51.978;5.934;2023-10-09T14:27:33;14.18;;;5.70;;
75358;SDS011;64046;51.978;5.934;2023-10-09T14:30:08;11.85;;;4.78;;
75358;SDS011;64046;51.978;5.934;2023-10-09T14:32:50;11.23;;;4.70;;
75358;SDS011;64046;51.978;5.934;2023-10-09T14:35:23;16.13;;;4.97;;
75358;SDS011;64046;51.978;5.934;2023-10-09T14:37:57;10.05;;;4.65;;
75358;SDS011;64046;51.978;5.934;2023-10-09T14:40:30;10.07;;;4.57;;
75358;SDS011;64046;51.978;5.934;2023-10-09T14:43:04;9.73;;;4.07;;
75358;SDS011;64046;51.978;5.934;2023-10-09T14:45:47;12.65;;;4.95;;
75358;SDS011;64046;51.978;5.934;2023-10-09T14:48:19;12.75;;;4.38;;
75358;SDS011;64046;51.978;5.934;2023-10-09T14:50:53;11.73;;;4.28;;
75358;SDS011;64046;51.978;5.934;2023-10-09T14:53:42;14.40;;;5.35;;
75358;SDS011;64046;51.978;5.934;2023-10-09T14:56:14;10.65;;;4.25;;
75358;SDS011;64046;51.978;5.934;2023-10-09T14:58:49;12.20;;;5.05;;
75358;SDS011;64046;51.978;5.934;2023-10-09T15:01:22;16.65;;;4.70;;
75358;SDS011;64046;51.978;5.934;2023-10-09T15:03:57;10.63;;;5.03;;
75358;SDS011;64046;51.978;5.934;2023-10-09T15:06:32;10.50;;;4.43;;
75358;SDS011;64046;51.978;5.934;2023-10-09T15:09:07;14.90;;;5.18;;
75358;SDS011;64046;51.978;5.934;2023-10-09T15:11:50;12.05;;;5.50;;
75358;SDS011;64046;51.978;5.934;2023-10-09T15:14:22;11.60;;;4.95;;
75358;SDS011;64046;51.978;5.934;2023-10-09T15:16:54;14.57;;;5.50;;
75358;SDS011;64046;51.978;5.934;2023-10-09T15:19:23;9.15;;;5.18;;
75358;SDS011;64046;51.978;5.934;2023-10-09T15:21:56;11.43;;;4.97;;
75358;SDS011;64046;51.978;5.934;2023-10-09T15:24:27;11.10;;;4.32;;
75358;SDS011;64046;51.978;5.934;2023-10-09T15:26:56;13.75;;;5.22;;
75358;SDS011;64046;51.978;5.934;2023-10-09T15:29:32;8.90;;;4.60;;
75358;SDS011;64046;51.978;5.934;2023-10-09T15:32:14;12.13;;;5.00;;
75358;SDS011;64046;51.978;5.934;2023-10-09T15:34:48;10.05;;;4.43;;
75358;SDS011;64046;51.978;5.934;2023-10-09T15:37:18;10.48;;;4.95;;
75358;SDS011;64046;51.978;5.934;2023-10-09T15:39:49;12.98;;;4.80;;
75358;SDS011;64046;51.978;5.934;2023-10-09T15:42:18;11.77;;;4.53;;
75358;SDS011;64046;51.978;5.934;2023-10-09T15:44:54;13.52;;;4.95;;
75358;SDS011;64046;51.978;5.934;2023-10-09T15:47:28;16.60;;;5.63;;